createdAt,value
2022-11-11T00:01:12.977Z,9.15
2022-11-11T00:03:39.880Z,9.19
2022-11-11T00:06:10.675Z,9.15
2022-11-11T00:08:37.231Z,9.22
2022-11-11T00:11:09.835Z,9.29
2022-11-11T00:13:38.271Z,9.37
2022-11-11T00:16:10.306Z,9.36
2022-11-11T00:18:56.013Z,9.38
2022-11-11T00:21:41.023Z,9.46
2022-11-11T00:24:38.140Z,9.44
2022-11-11T00:27:05.658Z,9.55
2022-11-11T00:29:32.324Z,9.55
2022-11-11T00:32:17.346Z,9.59
2022-11-11T00:35:04.016Z,9.63
2022-11-11T00:37:30.525Z,9.60
2022-11-11T00:39:57.130Z,9.63
2022-11-11T00:42:23.756Z,9.63
2022-11-11T00:44:50.390Z,9.71
2022-11-11T00:47:35.957Z,9.64
2022-11-11T00:50:22.967Z,9.72
2022-11-11T00:52:49.588Z,9.70
2022-11-11T00:55:16.413Z,9.74
2022-11-11T00:57:43.009Z,9.75
2022-11-11T01:00:10.191Z,9.76
2022-11-11T01:02:36.910Z,9.76
2022-11-11T01:05:03.852Z,9.77
2022-11-11T01:07:30.485Z,9.75
2022-11-11T01:09:57.315Z,9.78
2022-11-11T01:12:23.969Z,9.77
2022-11-11T01:14:50.587Z,9.80
2022-11-11T01:17:17.208Z,9.77
2022-11-11T01:19:43.857Z,9.81
2022-11-11T01:22:11.472Z,9.82
2022-11-11T01:24:38.729Z,9.82
2022-11-11T01:27:05.483Z,9.73
2022-11-11T01:29:32.016Z,9.75
2022-11-11T01:31:58.573Z,9.72
2022-11-11T01:34:25.299Z,9.65
2022-11-11T01:36:51.826Z,9.70
2022-11-11T01:39:18.416Z,9.66
2022-11-11T01:41:45.318Z,9.65
2022-11-11T01:44:11.908Z,9.65
2022-11-11T01:46:45.883Z,9.62
2022-11-11T01:49:42.725Z,9.64
2022-11-11T01:52:15.352Z,9.64
2022-11-11T01:54:54.558Z,9.62
2022-11-11T01:57:33.367Z,9.68
2022-11-11T02:00:06.131Z,9.56
2022-11-11T02:02:41.865Z,9.58
2022-11-11T02:05:32.593Z,9.58
2022-11-11T02:08:05.113Z,9.54
2022-11-11T02:10:34.032Z,9.52
2022-11-11T02:13:19.531Z,9.45
2022-11-11T02:15:46.733Z,9.36
2022-11-11T02:18:13.582Z,9.44
2022-11-11T02:20:44.647Z,9.42
2022-11-11T02:23:24.658Z,9.38
2022-11-11T02:25:54.509Z,9.38
2022-11-11T02:28:22.597Z,9.23
2022-11-11T02:30:49.220Z,9.33
2022-11-11T02:33:15.693Z,9.20
2022-11-11T02:35:46.576Z,9.25
2022-11-11T02:38:13.771Z,9.17
2022-11-11T02:41:03.758Z,9.19
2022-11-11T02:43:34.188Z,9.20
2022-11-11T02:46:03.041Z,9.13
2022-11-11T02:48:30.141Z,9.12
2022-11-11T02:50:57.197Z,9.10
2022-11-11T02:53:24.391Z,9.08
2022-11-11T02:55:51.224Z,9.16
2022-11-11T02:58:18.169Z,9.14
2022-11-11T03:00:44.744Z,9.01
2022-11-11T03:03:11.545Z,9.10
2022-11-11T03:05:38.235Z,9.06
2022-11-11T03:08:05.897Z,9.07
2022-11-11T03:10:32.513Z,8.98
2022-11-11T03:12:59.149Z,9.07
2022-11-11T03:15:25.766Z,9.02
2022-11-11T03:17:52.434Z,9.04
2022-11-11T03:20:41.216Z,8.94
2022-11-11T03:23:13.365Z,9.05
2022-11-11T03:25:42.628Z,9.06
2022-11-11T03:28:14.476Z,8.98
2022-11-11T03:30:43.674Z,8.97
2022-11-11T03:33:10.668Z,9.05
2022-11-11T03:35:37.937Z,9.01
2022-11-11T03:38:23.632Z,8.97
2022-11-11T03:40:53.343Z,8.94
2022-11-11T03:43:22.110Z,8.98
2022-11-11T03:45:49.199Z,8.95
2022-11-11T03:48:16.014Z,8.96
2022-11-11T03:50:42.893Z,8.91
2022-11-11T03:53:09.545Z,8.91
2022-11-11T03:55:36.103Z,8.86
2022-11-11T03:58:02.618Z,8.87
2022-11-11T04:00:29.384Z,8.87
2022-11-11T04:03:31.608Z,8.78
2022-11-11T04:06:16.781Z,8.77
2022-11-11T04:09:02.176Z,8.72
2022-11-11T04:11:35.373Z,8.79
2022-11-11T04:14:23.472Z,8.72
2022-11-11T04:16:49.974Z,8.72
2022-11-11T04:19:34.973Z,8.67
2022-11-11T04:22:01.798Z,8.66
2022-11-11T04:24:47.147Z,8.70
2022-11-11T04:27:15.777Z,8.70
2022-11-11T04:29:42.781Z,8.69
2022-11-11T04:32:32.745Z,8.68
2022-11-11T04:35:01.771Z,8.61
2022-11-11T04:37:33.011Z,8.59
2022-11-11T04:40:17.957Z,8.58
2022-11-11T04:42:44.529Z,8.54
2022-11-11T04:45:30.876Z,8.45
2022-11-11T04:47:58.634Z,8.47
2022-11-11T04:50:30.459Z,8.42
2022-11-11T04:52:57.280Z,8.47
2022-11-11T04:55:42.702Z,8.36
2022-11-11T04:58:09.694Z,8.32
2022-11-11T05:00:36.496Z,8.33
2022-11-11T05:03:15.836Z,8.38
2022-11-11T05:06:07.919Z,8.28
2022-11-11T05:08:55.017Z,8.29
2022-11-11T05:11:23.387Z,8.36
2022-11-11T05:14:09.413Z,8.24
2022-11-11T05:17:01.826Z,8.28
2022-11-11T05:19:47.003Z,8.26
2022-11-11T05:22:26.652Z,8.28
2022-11-11T05:25:11.807Z,8.31
2022-11-11T05:27:38.752Z,8.32
2022-11-11T05:30:06.646Z,8.28
2022-11-11T05:32:33.126Z,8.28
2022-11-11T05:34:59.690Z,8.28
2022-11-11T05:37:26.278Z,8.32
2022-11-11T05:39:52.989Z,8.20
2022-11-11T05:42:19.555Z,8.35
2022-11-11T05:44:46.042Z,8.36
2022-11-11T05:47:12.534Z,8.31
2022-11-11T05:49:39.244Z,8.31
2022-11-11T05:52:06.793Z,8.28
2022-11-11T05:54:33.694Z,8.20
2022-11-11T05:57:00.717Z,8.11
2022-11-11T05:59:27.261Z,8.15
2022-11-11T06:01:54.604Z,8.13
2022-11-11T06:04:21.190Z,8.09
2022-11-11T06:06:47.727Z,8.06
2022-11-11T06:09:14.322Z,8.03
2022-11-11T06:11:40.863Z,7.92
2022-11-11T06:14:07.715Z,7.92
2022-11-11T06:16:34.439Z,7.95
2022-11-11T06:19:01.107Z,7.84
2022-11-11T06:21:27.645Z,7.87
2022-11-11T06:23:54.157Z,7.88
2022-11-11T06:26:20.717Z,7.85
2022-11-11T06:28:54.903Z,7.84
2022-11-11T06:31:26.710Z,7.76
2022-11-11T06:33:54.110Z,7.77
2022-11-11T06:36:22.114Z,7.77
2022-11-11T06:38:48.623Z,7.66
2022-11-11T06:41:15.689Z,7.80
2022-11-11T06:43:43.192Z,7.80
2022-11-11T06:46:23.326Z,7.75
2022-11-11T06:48:50.375Z,7.75
2022-11-11T06:51:17.324Z,7.74
2022-11-11T06:53:43.864Z,7.79
2022-11-11T06:56:12.651Z,7.76
2022-11-11T06:58:39.523Z,7.79
2022-11-11T07:01:07.497Z,7.78
2022-11-11T07:03:34.950Z,7.85
2022-11-11T07:06:02.919Z,7.85
2022-11-11T07:08:29.690Z,7.86
2022-11-11T07:10:56.243Z,7.95
2022-11-11T07:13:23.038Z,7.88
2022-11-11T07:15:49.544Z,7.87
2022-11-11T07:18:16.104Z,7.95
2022-11-11T07:20:42.627Z,7.96
2022-11-11T07:23:09.137Z,8.01
2022-11-11T07:25:35.841Z,7.96
2022-11-11T07:28:02.598Z,8.04
2022-11-11T07:30:29.411Z,7.97
2022-11-11T07:32:56.130Z,8.06
2022-11-11T07:35:22.961Z,7.95
2022-11-11T07:37:49.577Z,8.02
2022-11-11T07:40:18.437Z,8.11
2022-11-11T07:42:45.121Z,8.10
2022-11-11T07:45:13.138Z,8.06
2022-11-11T07:47:39.789Z,8.07
2022-11-11T07:50:08.477Z,8.15
2022-11-11T07:52:36.996Z,8.07
2022-11-11T07:55:04.986Z,8.08
2022-11-11T07:57:31.601Z,8.22
2022-11-11T07:59:58.142Z,8.17
2022-11-11T08:02:24.654Z,8.16
2022-11-11T08:04:55.111Z,8.22
2022-11-11T08:07:23.839Z,8.20
2022-11-11T08:09:51.645Z,8.13
2022-11-11T08:12:37.118Z,8.14
2022-11-11T08:15:06.923Z,8.31
2022-11-11T08:17:39.397Z,8.31
2022-11-11T08:20:11.040Z,8.26
2022-11-11T08:22:42.192Z,8.28
2022-11-11T08:25:14.733Z,8.30
2022-11-11T08:27:42.363Z,8.20
2022-11-11T08:30:09.552Z,8.18
2022-11-11T08:32:36.098Z,8.12
2022-11-11T08:35:02.643Z,8.28
2022-11-11T08:37:29.849Z,8.30
2022-11-11T08:39:57.439Z,8.35
2022-11-11T08:42:24.278Z,8.34
2022-11-11T08:44:51.776Z,8.26
2022-11-11T08:47:20.556Z,8.32
2022-11-11T08:49:49.442Z,8.30
2022-11-11T08:52:16.184Z,8.29
2022-11-11T08:54:42.923Z,8.18
2022-11-11T08:57:09.473Z,8.19
2022-11-11T08:59:36.013Z,8.26
2022-11-11T09:02:02.601Z,8.15
2022-11-11T09:04:43.701Z,8.24
2022-11-11T09:07:12.587Z,8.23
2022-11-11T09:09:39.160Z,8.37
2022-11-11T09:12:05.830Z,8.32
2022-11-11T09:14:32.458Z,8.41
2022-11-11T09:16:59.001Z,8.42
2022-11-11T09:19:25.545Z,8.31
2022-11-11T09:21:53.120Z,8.29
2022-11-11T09:24:19.678Z,8.33
2022-11-11T09:26:49.989Z,8.39
2022-11-11T09:29:17.806Z,8.47
2022-11-11T09:31:46.069Z,8.48
2022-11-11T09:34:14.173Z,8.63
2022-11-11T09:36:41.089Z,8.51
2022-11-11T09:39:07.681Z,8.47
2022-11-11T09:41:43.579Z,8.72
2022-11-11T09:45:09.020Z,8.75
2022-11-11T09:48:05.015Z,8.76
2022-11-11T09:50:37.406Z,8.67
2022-11-11T09:53:11.288Z,8.66
2022-11-11T09:55:44.877Z,8.70
2022-11-11T09:58:14.605Z,8.83
2022-11-11T10:00:45.374Z,8.85
2022-11-11T10:03:22.848Z,8.85
2022-11-11T10:05:56.932Z,8.87
2022-11-11T10:08:23.731Z,8.89
2022-11-11T10:10:53.432Z,8.92
2022-11-11T10:13:31.018Z,8.97
2022-11-11T10:16:15.472Z,9.06
2022-11-11T10:18:50.705Z,9.08
2022-11-11T10:21:26.557Z,8.94
2022-11-11T10:23:59.844Z,8.87
2022-11-11T10:26:35.617Z,9.04
2022-11-11T10:29:06.203Z,9.02
2022-11-11T10:31:33.155Z,9.09
2022-11-11T10:34:05.809Z,9.22
2022-11-11T10:36:37.137Z,9.11
2022-11-11T10:39:05.561Z,9.21
2022-11-11T10:41:39.236Z,9.42
2022-11-11T10:44:27.309Z,9.49
2022-11-11T10:47:10.992Z,9.74
2022-11-11T10:49:56.127Z,9.48
2022-11-11T10:52:38.361Z,9.76
2022-11-11T10:55:10.883Z,9.79
2022-11-11T10:57:46.708Z,9.91
2022-11-11T11:00:15.083Z,9.84
2022-11-11T11:02:56.903Z,9.92
2022-11-11T11:05:54.330Z,9.99
2022-11-11T11:08:27.008Z,10.03
2022-11-11T11:11:02.890Z,10.27
2022-11-11T11:14:04.814Z,10.18
2022-11-11T11:16:44.173Z,10.53
2022-11-11T11:19:22.145Z,10.50
2022-11-11T11:22:01.759Z,10.54
2022-11-11T11:24:33.701Z,10.69
2022-11-11T11:27:07.665Z,11.01
2022-11-11T11:29:39.671Z,11.25
2022-11-11T11:32:12.080Z,11.06
2022-11-11T11:34:48.325Z,11.07
2022-11-11T11:37:15.391Z,11.21
2022-11-11T11:39:42.308Z,11.33
2022-11-11T11:42:10.673Z,11.39
2022-11-11T11:44:38.973Z,11.71
2022-11-11T11:47:29.524Z,11.66
2022-11-11T11:50:20.902Z,11.62
2022-11-11T11:52:53.233Z,11.62
2022-11-11T11:55:33.606Z,11.69
2022-11-11T11:58:38.700Z,11.72
2022-11-11T12:01:24.826Z,11.67
2022-11-11T12:03:54.376Z,11.66
2022-11-11T12:06:47.370Z,11.56
2022-11-11T12:09:40.185Z,11.38
2022-11-11T12:12:27.294Z,11.68
2022-11-11T12:15:24.858Z,11.84
2022-11-11T12:17:59.771Z,11.86
2022-11-11T12:20:51.287Z,12.00
2022-11-11T12:23:36.473Z,12.25
2022-11-11T12:26:15.575Z,12.19
2022-11-11T12:28:42.169Z,12.06
2022-11-11T12:31:14.815Z,12.32
2022-11-11T12:33:44.414Z,12.45
2022-11-11T12:36:16.160Z,12.45
2022-11-11T12:38:51.376Z,12.44
2022-11-11T12:41:34.340Z,12.25
2022-11-11T12:44:12.752Z,12.32
2022-11-11T12:47:05.082Z,12.45
2022-11-11T12:49:51.445Z,12.53
2022-11-11T12:52:54.499Z,12.49
2022-11-11T12:55:59.889Z,12.78
2022-11-11T12:58:44.609Z,12.93
2022-11-11T13:01:18.746Z,12.83
2022-11-11T13:04:03.440Z,12.81
2022-11-11T13:06:41.954Z,12.69
2022-11-11T13:09:08.412Z,12.90
2022-11-11T13:11:53.187Z,12.86
2022-11-11T13:14:57.315Z,12.74
2022-11-11T13:17:24.634Z,12.84
2022-11-11T13:20:05.519Z,12.56
2022-11-11T13:22:33.201Z,12.69
2022-11-11T13:25:07.783Z,12.65
2022-11-11T13:27:50.640Z,12.62
2022-11-11T13:30:23.161Z,12.53
2022-11-11T13:33:00.287Z,12.80
2022-11-11T13:35:54.343Z,12.70
2022-11-11T13:38:28.626Z,12.43
2022-11-11T13:40:58.531Z,12.67
2022-11-11T13:43:34.324Z,12.67
2022-11-11T13:46:03.450Z,12.59
2022-11-11T13:48:38.654Z,12.79
2022-11-11T13:51:13.431Z,12.61
2022-11-11T13:53:42.059Z,12.70
2022-11-11T13:56:10.803Z,12.73
2022-11-11T13:58:41.537Z,12.64
2022-11-11T14:01:11.020Z,12.60
2022-11-11T14:03:43.360Z,12.84
2022-11-11T14:06:15.779Z,12.76
2022-11-11T14:08:50.358Z,12.70
2022-11-11T14:11:26.339Z,12.87
2022-11-11T14:13:54.850Z,12.76
2022-11-11T14:16:36.477Z,12.66
2022-11-11T14:19:21.296Z,12.82
2022-11-11T14:21:59.028Z,12.80
2022-11-11T14:24:37.281Z,12.90
2022-11-11T14:27:26.155Z,12.76
2022-11-11T14:29:54.966Z,12.71
2022-11-11T14:33:08.954Z,12.48
2022-11-11T14:36:24.995Z,12.50
2022-11-11T14:39:04.461Z,12.46
2022-11-11T14:41:51.707Z,12.35
2022-11-11T14:44:27.497Z,12.36
2022-11-11T14:47:34.167Z,12.34
2022-11-11T14:50:01.612Z,12.37
2022-11-11T14:52:44.954Z,12.40
2022-11-11T14:55:19.275Z,12.27
2022-11-11T14:58:05.796Z,12.14
2022-11-11T15:00:43.794Z,12.14
2022-11-11T15:03:21.074Z,12.10
2022-11-11T15:05:54.568Z,11.99
2022-11-11T15:08:26.380Z,12.00
2022-11-11T15:11:15.873Z,11.96
2022-11-11T15:14:04.193Z,11.88
2022-11-11T15:17:00.203Z,11.82
2022-11-11T15:20:18.899Z,11.76
2022-11-11T15:23:11.660Z,11.65
2022-11-11T15:25:45.271Z,11.67
2022-11-11T15:28:36.108Z,11.63
2022-11-11T15:31:46.144Z,11.60
2022-11-11T15:34:40.802Z,11.53
2022-11-11T15:37:15.298Z,11.54
2022-11-11T15:39:51.251Z,11.34
2022-11-11T15:42:26.780Z,11.33
2022-11-11T15:44:53.515Z,11.28
2022-11-11T15:47:24.628Z,11.09
2022-11-11T15:49:51.819Z,11.13
2022-11-11T15:52:31.825Z,11.09
2022-11-11T15:55:00.005Z,10.96
2022-11-11T15:57:30.940Z,11.01
2022-11-11T15:59:59.624Z,11.01
2022-11-11T16:02:31.627Z,10.97
2022-11-11T16:05:07.288Z,10.88
2022-11-11T16:07:58.107Z,10.85
2022-11-11T16:10:32.225Z,10.80
2022-11-11T16:13:04.649Z,10.70
2022-11-11T16:15:48.102Z,10.66
2022-11-11T16:18:27.780Z,10.61
2022-11-11T16:21:00.454Z,10.61
2022-11-11T16:23:28.460Z,10.51
2022-11-11T16:25:58.431Z,10.49
2022-11-11T16:28:27.698Z,10.58
2022-11-11T16:30:54.220Z,10.55
2022-11-11T16:33:33.662Z,10.44
2022-11-11T16:36:11.186Z,10.56
2022-11-11T16:38:44.019Z,10.50
2022-11-11T16:41:34.065Z,10.40
2022-11-11T16:44:00.605Z,10.42
2022-11-11T16:46:35.980Z,10.45
2022-11-11T16:49:29.233Z,10.40
2022-11-11T16:51:56.335Z,10.28
2022-11-11T16:54:27.189Z,10.31
2022-11-11T16:56:57.304Z,10.27
2022-11-11T16:59:39.338Z,10.29
2022-11-11T17:02:16.537Z,10.20
2022-11-11T17:04:48.347Z,10.20
2022-11-11T17:07:37.274Z,10.26
2022-11-11T17:10:09.623Z,10.22
2022-11-11T17:12:37.827Z,10.07
2022-11-11T17:15:06.341Z,10.11
2022-11-11T17:17:33.184Z,10.04
2022-11-11T17:20:24.306Z,9.95
2022-11-11T17:22:56.614Z,10.01
2022-11-11T17:25:23.136Z,9.99
2022-11-11T17:27:49.747Z,9.97
2022-11-11T17:30:16.453Z,10.10
2022-11-11T17:32:42.961Z,9.97
2022-11-11T17:35:11.672Z,9.98
2022-11-11T17:37:39.060Z,9.88
2022-11-11T17:40:10.338Z,9.95
2022-11-11T17:42:37.404Z,10.04
2022-11-11T17:45:05.273Z,9.84
2022-11-11T17:47:39.237Z,9.79
2022-11-11T17:50:09.172Z,9.79
2022-11-11T17:52:35.692Z,9.75
2022-11-11T17:55:02.271Z,9.70
2022-11-11T17:57:28.808Z,9.65
2022-11-11T17:59:55.318Z,9.57
2022-11-11T18:02:21.877Z,9.60
2022-11-11T18:04:48.645Z,9.58
2022-11-11T18:07:15.209Z,9.58
2022-11-11T18:09:41.787Z,9.56
2022-11-11T18:12:08.353Z,9.55
2022-11-11T18:14:34.896Z,9.52
2022-11-11T18:17:01.442Z,9.69
2022-11-11T18:19:27.990Z,9.68
2022-11-11T18:21:54.487Z,9.73
2022-11-11T18:24:20.962Z,9.57
2022-11-11T18:26:47.623Z,9.54
2022-11-11T18:29:14.194Z,9.73
2022-11-11T18:31:40.787Z,9.70
2022-11-11T18:34:07.351Z,9.58
2022-11-11T18:36:33.863Z,9.46
2022-11-11T18:39:00.482Z,9.46
2022-11-11T18:41:27.099Z,9.40
2022-11-11T18:43:54.258Z,9.46
2022-11-11T18:46:26.366Z,9.42
2022-11-11T18:48:58.847Z,9.42
2022-11-11T18:51:26.796Z,9.43
2022-11-11T18:53:53.326Z,9.25
2022-11-11T18:56:22.147Z,9.24
2022-11-11T18:58:53.882Z,9.24
2022-11-11T19:01:23.531Z,9.15
2022-11-11T19:03:52.202Z,9.17
2022-11-11T19:06:20.818Z,9.33
2022-11-11T19:08:48.729Z,9.25
2022-11-11T19:11:15.231Z,9.20
2022-11-11T19:13:41.834Z,9.24
2022-11-11T19:16:15.064Z,9.11
2022-11-11T19:18:42.420Z,9.15
2022-11-11T19:21:11.327Z,9.04
2022-11-11T19:23:38.173Z,9.00
2022-11-11T19:26:05.140Z,8.99
2022-11-11T19:28:31.843Z,8.91
2022-11-11T19:31:07.050Z,8.88
2022-11-11T19:33:35.895Z,8.80
2022-11-11T19:36:05.550Z,8.74
2022-11-11T19:38:32.626Z,8.71
2022-11-11T19:41:09.322Z,8.49
2022-11-11T19:43:36.723Z,8.46
2022-11-11T19:46:04.824Z,8.46
2022-11-11T19:48:31.912Z,8.41
2022-11-11T19:51:06.683Z,8.39
2022-11-11T19:53:33.493Z,8.33
2022-11-11T19:56:06.124Z,8.32
2022-11-11T19:58:32.950Z,8.30
2022-11-11T20:01:08.451Z,8.28
2022-11-11T20:03:35.933Z,8.38
2022-11-11T20:06:04.865Z,8.23
2022-11-11T20:08:33.008Z,8.21
2022-11-11T20:11:09.282Z,8.16
2022-11-11T20:13:39.915Z,8.10
2022-11-11T20:16:09.588Z,8.04
2022-11-11T20:18:36.128Z,7.89
2022-11-11T20:21:05.219Z,7.94
2022-11-11T20:23:35.491Z,8.01
2022-11-11T20:26:05.765Z,8.03
2022-11-11T20:28:32.649Z,7.94
2022-11-11T20:30:59.290Z,8.06
2022-11-11T20:33:26.149Z,8.02
2022-11-11T20:35:52.983Z,8.09
2022-11-11T20:38:19.475Z,7.89
2022-11-11T20:40:45.954Z,7.81
2022-11-11T20:43:12.479Z,7.74
2022-11-11T20:45:38.962Z,7.77
2022-11-11T20:48:08.480Z,7.85
2022-11-11T20:50:34.978Z,7.83
2022-11-11T20:53:01.441Z,7.66
2022-11-11T20:55:28.000Z,7.49
2022-11-11T20:57:54.493Z,7.37
2022-11-11T21:00:21.091Z,7.27
2022-11-11T21:02:47.588Z,7.41
2022-11-11T21:05:14.130Z,7.40
2022-11-11T21:07:40.617Z,7.23
2022-11-11T21:10:07.202Z,7.23
2022-11-11T21:12:33.769Z,7.24
2022-11-11T21:15:00.299Z,7.29
2022-11-11T21:17:26.834Z,7.26
2022-11-11T21:19:53.374Z,7.16
2022-11-11T21:22:19.860Z,6.97
2022-11-11T21:24:46.428Z,7.00
2022-11-11T21:27:13.160Z,6.95
2022-11-11T21:29:39.941Z,7.01
2022-11-11T21:32:06.783Z,7.04
2022-11-11T21:34:33.263Z,6.99
2022-11-11T21:36:59.843Z,6.64
2022-11-11T21:39:26.365Z,6.64
2022-11-11T21:41:52.911Z,6.63
2022-11-11T21:44:19.365Z,6.54
2022-11-11T21:46:45.895Z,6.44
2022-11-11T21:49:12.352Z,6.43
2022-11-11T21:51:38.898Z,6.58
2022-11-11T21:54:08.940Z,6.34
2022-11-11T21:56:37.432Z,6.44
2022-11-11T21:59:06.165Z,6.48
2022-11-11T22:01:36.174Z,6.60
2022-11-11T22:04:08.965Z,6.46
2022-11-11T22:06:35.987Z,6.43
2022-11-11T22:09:04.092Z,6.26
2022-11-11T22:11:33.381Z,6.26
2022-11-11T22:14:01.546Z,6.33
2022-11-11T22:16:36.551Z,6.32
2022-11-11T22:19:14.856Z,6.28
2022-11-11T22:21:43.073Z,6.24
2022-11-11T22:24:11.018Z,6.20
2022-11-11T22:26:39.873Z,6.28
2022-11-11T22:29:08.521Z,6.29
2022-11-11T22:31:37.310Z,6.25
2022-11-11T22:34:06.368Z,6.25
2022-11-11T22:36:34.400Z,6.19
2022-11-11T22:39:01.231Z,6.18
2022-11-11T22:41:31.000Z,5.97
2022-11-11T22:44:00.667Z,5.98
2022-11-11T22:46:28.798Z,6.05
2022-11-11T22:49:04.068Z,5.87
2022-11-11T22:51:32.020Z,5.91
2022-11-11T22:54:01.402Z,5.91
2022-11-11T22:56:28.692Z,5.95
2022-11-11T22:58:56.539Z,6.01
2022-11-11T23:01:30.546Z,6.09
2022-11-11T23:03:59.919Z,5.94
2022-11-11T23:06:38.882Z,5.99
2022-11-11T23:09:05.767Z,6.02
2022-11-11T23:11:34.528Z,5.96
2022-11-11T23:14:05.239Z,6.05
2022-11-11T23:16:32.222Z,5.84
2022-11-11T23:19:00.219Z,5.95
2022-11-11T23:21:28.605Z,5.99
2022-11-11T23:23:55.871Z,6.12
2022-11-11T23:26:25.801Z,6.11
2022-11-11T23:28:52.681Z,5.98
2022-11-11T23:31:21.917Z,5.94
2022-11-11T23:33:50.801Z,5.84
2022-11-11T23:36:19.789Z,5.83
2022-11-11T23:38:47.881Z,5.81
2022-11-11T23:41:14.449Z,5.84
2022-11-11T23:43:41.076Z,5.82
2022-11-11T23:46:08.690Z,5.72
2022-11-11T23:48:35.777Z,5.83
2022-11-11T23:51:02.795Z,5.85
2022-11-11T23:53:30.097Z,5.71
2022-11-11T23:55:57.174Z,5.52
2022-11-11T23:58:24.385Z,5.63
